« 2011年1月 | トップページ | 2011年3月 »

2011年2月

2011年2月27日 (日)

ガスター来場とTAF

今日は成田のTAFによるとdashな予報です。。。。が、9時過ぎに飛行場に行くと穏かです。
ラジコンヘリを飛ばしてマッタリしていると某弁護士が「おいっ!板倉に行くぞ!」と声が
かかり、準備しようかな?と思ったら何やら怪しげな風が。。。。

とりあえず、板倉に行くのは見合わせてJA20GMでトラフィックパターンを飛んでいたら案の定、風が強くなって来ました。オーナーの見事な操縦でRYW25に着陸して大急ぎで機体を係留。。。

今日は嵐typhoonを呼ぶベテラン訓練生「ガスターtyphoon」の機嫌が悪かったのが強風dashの原因です。
なんでも、朝飯をマックで3人分注文して飛行場に着いたら2人分しか無かったとか。。。

夕方はクラブ員の獣医さんに頂いた猪肉を使って、拙宅でクラブ員の皆さん獅子鍋をしましたrestaurant



| | コメント (0)

2011年2月26日 (土)

モグラ3機で関宿滑空場~

今日は朝から穏かな天気です。
本当は実機のフライト前にラジコンを飛ばそうとしていたのですが、朝寝坊してしまいましたsweat01

午前中は、クラブハウスの横でラジコンヘリを飛ばしたり、まったり過ごしていたのですが、愛さんから「モグラ3機で関宿滑空場に行こう!」と誘われて新撰組で飛行準備をしていましたが、某A尾弁護士のSF25B(通称チャリンコファルケ)にあわせてSF28A(通称タンデムファルケ)で行く事になりました。もう一機は北海道の北見農道空港から整備の為に大利根飛行場に来ているHK36ディモナ(通称香港ディモナ)です。

そして、関宿滑空場ではグライダーの7大戦が行われていて、九州から遠藤教官が来られているとの事。遠藤教官は私のファーストソロに出してくれた教官です。

001
14時過ぎにモグラ3機で大利根を出発します。

002ja907b
JA907Bは3番機です。RWY25で離陸しますぅ~少し背風~sweat02 cameraby M井さん

003
取手付近で編隊を組みます。JA2528-JA20GM-JA907Bの順

004ja20gm
JA20GMはA尾オーナーとSさん

005
縦列隊形へ~フォーメーションリーダーはJA2528のソルジャー小林機長

006rwy36a
関宿滑空場RWY36Aに着陸します。

007
7大戦の行われている関宿滑空場のピスト

008
おのぼりさんspa

009
東北大キュムラス

010
帰りは関宿滑空場RWY18AからJA907B-JA20GM-JA2528の順番で離陸~

011
帰りも編隊飛行で帰ります~

012ja2528
JA2528北見の香港ディモナ















| | コメント (0)

2011年2月20日 (日)

航空安全講習会

航空安全講習会が茨城県取手市で開催されました。

Dscn5753s
取手駅前の会議室~

Dscn5763s
日本飛行連盟、中澤理事長による開催の挨拶

Photo
講師はJMGCの山本主任教官殿

Photo_2
つづいて、航空局の門田係長

Dscn5789s
放課後は近くの居酒屋でM田さんのファーストソロを祝う会が開催されましたbeerbeer

続きを読む "航空安全講習会"

| | コメント (0)

2011年2月19日 (土)

河口湖の冬花火・湖上の舞~

今日は午前中、名古屋在住のK本さんを安食駅で拾って大利根飛行場まで送り届け
午後からは山梨県の富士五湖、河口湖で開催される2011冬花火・湖上の舞を見に行
ってきました。(前回のリベンジですcat

富士山方面は良く遊びに行っていましたが、河口湖や山中湖より、本栖湖や西湖、精進湖が好きです。cat

001
大利根飛行場から3時間で富士五湖の西湖に到着~!

002
水はキライだにゃぁ~cat

005
西湖と富士山~fuji

006
鳴沢の溶岩樹型~って?cat

007
upはどれ?

008
河口湖の湖畔には屋台村が出現sign03

013
シシブタ汁(左)と馬モツ煮(右)~restaurant

010
花火がはじまるまで焚き火で暖をとりましょう!

Dscn5728s
ライトアップも綺麗です。

016
20:00から花火開始~

014
20分間だけど凄く良かった!cat

| | コメント (0)

2011年2月14日 (月)

2011年冬の別海フライトパーク~流氷フライト 5日目

RJCM 140000Z 25003KT 200V310 9999 FEW030 M06/M13 Q1019
RJCM 140100Z 31006KT 260V350 9999 FEW030 M04/M12 Q1019
RJCN 140300Z 30009KT 260V340 9999 FEW030 M03/M13 Q1018
RJCN 140400Z 27008KT 230V300 9999 FEW030 M03/M13 Q1017
RJSS 140600Z 10004KT 070V150 9999 FEW030 05/M03 Q1019
RJTT 140700Z 02012KT 9999 -RA FEW020 SCT025 BKN035 06/00 Q1018 NOSIG
RJAA 141000Z 03009KT 8000 -RA SCT015 BKN020 04/03 Q1017 BECMG 4000 -RA BR BKN008 BKN015








114a 今日は今回の渡道の最終日です。先ずはcatさんが楽しみにしていた流氷ウォークに参加する為にウトロ港まで行きます。

114
参加者はオーストラリア人2名+日本人3名。漁師のオジさんが案内してくれます。

115 ドライスーツを着てウトロ港から流氷の上を歩いて港外まで来ました!
うねりで流氷が動くんです!

117 流氷に穴を開けて海水に浸かってみました~cat
なんか変な感じですcat

118 流氷ウォーク終了後、大急ぎで中標津へ帰ります~dash

119rwy06 中標津空港の滑走路エンドを通り過ぎて中標津市街へ~

120 中標津市街の焼肉屋「そら」で今回の渡道、最後のご飯~cat
生ラムジンギスカンと鹿肉ジンギスカン

121ana840 ANA840便で羽田に帰ります~

| | コメント (0)

2011年2月13日 (日)

2011年冬の別海フライトパーク~流氷フライト 4日目

RJCM 122247Z 33019G33KT 1600 BLSN -SHSN FEW008 BKN010 BKN020 M05/M08 Q1005 
RJCM 130000Z 33019G30KT 3000 R36/1300VP1800D BLSN -SHSN FEW008 BKN015 BKN020 M05/M08 Q1005
RJCM 130100Z 33019G33KT 5000 R36/1800U BLSN -SHSN FEW008 BKN015 BKN020 M05/M08 Q1005
RJCM 130220Z 33017G29KT 0900 R36/1000VP1800D BLSN SHSN FEW008 BKN015 BKN025 M05/M08 Q1006
RJCM 130300Z 33016G26KT 0900 R36/0650V1700U BLSN SHSN FEW005 BKN007 BKN020 M05/M08 Q1005
RJCM 130540Z 33018G32KT 0900 R36/1300VP1800U SHSN BLSN VV005 M06/M08 Q1007 RMK A2975
RJCM 130743Z 33016KT 0900 R36/1400VP1800U SHSN BLSN VV005 M06/M09 Q1009 RMK A2980
RJCM 130800Z 33011KT 1200 R36/1000VP1800U -SHSN SCT005 BKN015 M06/M07 Q1009 REBLSN
RJCM 130919Z 32014G25KT 5000 -SHSN FEW012 SCT020 BKN030 M06/M09 Q1010
RJCM 131200Z 29005KT 240V330 4000 -SHSN FEW010 BKN020 BKN025 M06/M08 Q1012

今日は暴風雪で宿の外に出られなかったら一日中、温泉spaに浸かっている予定でしたが、雪は収まってきました~
でも部屋の外は。。。。雪snow~だらけです。








096
朝起きたら、窓が雪で埋まっていました!びっくりsign03



097
まずは朝風呂~spa



098
でも、温泉に行くには部屋からこの渡り廊下を通らないと行けません。寒いし雪でスリッパすべる!

099 まずはオシンコシンの滝です。駐車場から海を見ると流氷がギッシリ押し寄せていました。

100 駐車場から雪道を歩いて~オシンコシンの滝です。

101 さらに、展望台までの登り坂を歩いて滝本体です~cat

102 手すりに掴まりながら降ります~




昼飯はウトロ港近くのボンズホームでジャガイモ料理です。downwardleft

103 昼飯はジャガイモカレー~restaurantcat

104 ジャガイモグラタン~restaurantcat

108 ウトロ港にやってきました。ここも流氷ギッチリです。

105 んん?なんだこれは??cat

107 流氷温泉~sign03 spa+penguin って入ってみましょうか?

106 これはなかなか良さそうです!cat

110 温泉マークで「うる星やつら」を思い出すのは。。。cat

109 カマクラがあったので中に入ってみました。意外に暖かいです(外に比べれば)

111 知床五湖の岩尾別温泉spa方面に行こうとしたら通行止めでした。って事は岩尾別spaに泊まった人はsign02

112 高台からウトロ方面を眺めます。流氷penguinビッチリ!でも風強いです。

113 ウトロ港に戻ると流氷ウォークをしている人たちが居ました。もちろん、インストラクターと一緒です。
個人で流氷の上を歩くのは自殺行為ですよ!

101a
道の駅ウトロではヒグマの手形?。。。こんなのにヤラレタラ首とれちゃいますね!

101
今日のオヤツは鹿バーガーとサーモンバーガーです。
お腹いっぱいになったので、夕飯はおつまみ+知床ワインにしました。

| | コメント (0)

2011年2月12日 (土)

2011年冬の別海フライトパーク~流氷フライト 3日目

RJCN 120000Z 02010KT 9999 SCT025 BKN110 M04/M08 Q1015
RJCN 120300Z 02015KT 4900 -SHSN SCT015 BKN020 M03/M08 Q1011
RJCM 120600Z 01015KT 2000 R36/P1800N -SHSN FEW006 BKN015 M03/M05 Q1010
RJCM 120900Z 36016KT 1400 R36/P1800N -SHSN FEW005 BKN008 BKN020 M04/M05 Q1008
RJCM 121022Z 35017KT 0900 SHSN VV006 M04/M05 Q1008 RMK A2977





今夜から明日にかけて台風並みに発達した低気圧の影響で暴風雪の予報です。
佐藤場長から「今夜はここに泊まるのは危険だから他に避難した方が良い」と言われ宿を探します。
流氷観光もしたいのでウトロの温泉宿を予約しましたが、この悪天候なのでどうなる事やら~cat

079fp
まだ雪は降り出しませんが、どんよりな天気です。



080
曇天になると圧雪滑走路は(影が見えにくいので)高度感覚を失いとっても怖いです~sweat01



081
羅臼の松法漁港に流氷が接岸していました。



082
根室海峡の反対側は国後島です。



083a
オジロワシがたくさん流氷に乗っていましたcat



083
upwardrightの写真を拡大してみます~cat



084
流氷って本当に流れてます~( ̄ー ̄)ニヤリ






085
羅臼でトドの刺身とタコの卵を食べます~



086
羅臼に来たらやっぱりホッケでしょうcat



087
そして、熊の湯spaもハズせませんね!cat



088_2
国道244号線で根北峠を越えて斜里方面に向かいます、DRSNですね!時々視界をさえぎられます。



089
オホーツク海側に到着。道路の左側は海なんですが流氷が押し寄せ雪原みたいです。



090
海なんだか雪原なんだか。。。



091
夕飯は知床村内?の番屋で~cat



092
珍味「タラバガニの内子の刺身?」



093
クロクチマスの刺身



094
蝦夷鹿の刺身



095
海鮮サラダ

Photo 羅臼からウトロは知床峠を通れば30分程度で行けますが冬季通行止めなので迂回すると3時間位かかります。

今夜のお宿はウトロ温泉のつくだ荘です。じゃらんの最安値のプランで申し込んだけど別館の和室12畳バストイレ付きなってラッキーhappy01






| | コメント (0)

2011年2月11日 (金)

2011年冬の別海フライトパーク~流氷フライト 2日目

RJCN 110000Z 15002KT 9999 FEW050 M06/M10 Q1014
RJCN 110100Z 15007KT CAVOK M02/M10 Q1014
RJCM 110200Z 16004KT 9999 FEW030 M04/M10 Q1015
RJCN 110300Z 13003KT 060V210 9999 FEW040 M01/M10 Q1014
RJCN 110600Z 14003KT 100V180 9999 FEW040 00/M10 Q1015
RJCN 110900Z 08005KT 020V100 9999 FEW030 BKN050 M03/M07 Q1017
RJCM 112300Z VRB01KT 9999 FEW010 SCT018 BKN170 M11/M13 Q1018





今日は予報どおり良い天気です~sun

予定どおり知床半島を一周して流氷観測フライトを行う事にします。
機体をハンガーから出し、飛行前点検ののち、プロペラを手で40回程回します~!
これは、潤滑油の攪拌とキャブレターに燃料を送り始動を容易にする為に行います。
特に寒冷時は念入りに行いますcat

佐藤場長が準備をしてくれている間に気象や流氷の予測位置を調べたり、フライトプランを入れたりと忙しく準備します。今回の流氷観測フライトは風が弱いので別海フライトパーク~羅臼~知床岬~ウトロ~斜里岳~屈斜路湖~別海フライトパークとしました。所要時間は2時間30分を予定します。(この時期は北西風が強く知床半島の羅臼側は乱流域になるので行かなかった。今回初めて羅臼側を飛びます)




013rwy32
別海フライトパークRWY32

012ja2417
今回もJA2417は絶好調です~cat

015
離陸準備中~RWY32を離陸します~

016
羅臼を目指します~

017
根室海峡が見えてきました!

018
根室海峡にまだ流氷は見えません!

019
キャンピングカーで来た時に釣りをする松法漁港~!

020
おっ!

021
羅臼沖に流氷を発見!

022
羅臼市街と羅臼岳~

023
流氷の向こうには国後島です

025
流氷の密度が上がりギッシリです

026
知床岬まで来ました~

027
オホーツク側は流氷が少ないです!どうして?

030
旋回しながら上昇中~

031
帯になって流れている流氷~

0325000ft
知床岬上空4,500ft~

続きを読む "2011年冬の別海フライトパーク~流氷フライト 2日目"

| | コメント (0)

2011年2月10日 (木)

2011年冬の別海フライトパーク~流氷フライト 1日目

RJAA 092300Z 23002KT 9999 FEW020 BKN060 01/M01 Q1014 BECMG 32005KT
RJTT 100200Z 35011KT 9999 FEW030 SCT060 07/M07 Q1014 NOSIG
RJCN 100400Z 27006KT 230V320 9999 FEW025 BKN035 M01/M08 Q1004
RJCN 100600Z 30007KT 250V340 9999 FEW025 BKN040 M01/M07 Q1004
RJCN 100900Z 32003KT 9999 FEW025 BKN040 M02/M08 Q1007
RJCM 102300Z 17005KT 9999 FEW040 M12/M14 Q1015

今年は順調に流氷がやって来たので別海フライトパークから流氷観測フライトを行う為、3連休は有給休暇をくっつけて5日間の予定で渡道しました~cat

000
成田線の大利根対岸の某駅から成田に向かいます~!ホーム全体に屋根が無いsweat02

001
成田駅から成田エクスプレスと京急を乗り継いで羽田空港に向かいます~cat

002
この時間の東京方面の成田エクスプレスは空いていますね!sweat01

003
スカイツリーも日進月歩で成長?しています~upwardright

004
品川で京急に乗り換えて羽田空港へ~!airplane中標津行きは満席です!sweat01

005ana837
離陸後、初期上昇行程が終わり、「電波を発射しない電子機器」の使用が許可されると、もう大利根が眼下に見えます~cat

ANA837便は北の大地にはいり高度を下げ釧路市上空~を経由して中標津空港にアプローチを開始します。自衛隊の計根別飛行場RJCSが視認できたので、別海フライトパークへの道路を辿ると「あった!RWYインサイト!」と思わず機内で口に出してしまった私はやっぱり航空廃人?残念ながら、写真は「全ての電子機器の使用は禁止・・・」だったので撮影できませんでした!
(;ω;)

中標津空港へはRWY26へのビジュアルアプローチ!中標津市街地上空からRWY26へ着陸~!定刻より9分遅れでした。空港到着後は5日間の足となるレンタカーのチェックアウトです。毎回、ニッポンレンタカーを利用するのですが。今回は一つ上のクラスなのに5日間で5千円も安くなる日産レンタカーを利用しました!(5千円の差は大きいぞ)

別海フライトパークに向かう途中、計根別のコンビニでお弁当を仕入れて行きます。15時前に別海フライトパークの到着~cat

さっそく、佐藤場長とフライトの打ち合わせを行いました~がっ!
天気予報によると明日11日は快晴sunですが12日から13日にかけて台風並に発達した低気圧の影響で暴風雪snowtyphoondash~!

とりあえず、明日は飛べそうですね!
( ̄ー ̄)ニヤリ

 






続きを読む "2011年冬の別海フライトパーク~流氷フライト 1日目"

| | コメント (0)

« 2011年1月 | トップページ | 2011年3月 »